Time;durP1;ratioP1;P1;durP2;ratioP2;P2;SDS_P1;SDS_P2;PMS_P1;PMS_P2;Temp;Humidity;BMP_temperature;BMP_pressure;BME280_temperature;BME280_humidity;BME280_pressure;Samples;Min_cycle;Max_cycle;Signal;HPM_P1;HPM_P2
2021/12/10 00:02:20;;;;;;;;;72.00;56.00;;;;;-146.39;100.00;62182.44;6311494;20;2500294;-43
2021/12/10 00:04:50;;;;;;;;;86.67;61.00;;;;;-146.39;100.00;62182.44;6285704;20;3653373;-42
2021/12/10 00:07:25;;;;;;;;;74.67;56.00;;;;;-146.39;100.00;62182.44;6314511;20;3645042;-44
2021/12/10 00:10:05;;;;;;;;;83.33;58.67;;;;;-146.39;100.00;62182.44;6311597;20;3660125;-42
2021/12/10 00:12:47;;;;;;;;;67.50;53.00;;;;;-146.39;100.00;62182.44;6311599;20;2867968;-40
2021/12/10 00:15:27;;;;;;;;;68.00;51.50;;;;;-146.39;100.00;62182.44;6280591;20;2871080;-42
2021/12/10 00:18:01;;;;;;;;;62.00;46.50;;;;;-146.39;100.00;62182.44;6282665;20;2860702;-42
2021/12/10 00:20:35;;;;;;;;;54.50;47.00;;;;;-146.39;100.00;62182.44;6281401;20;2852401;-42
2021/12/10 00:23:15;;;;;;;;;59.00;49.00;;;;;-146.39;100.00;62182.44;6280123;20;2496135;-40
2021/12/10 00:25:52;;;;;;;;;60.67;47.00;;;;;-146.39;100.00;62182.44;6282426;20;2869021;-40
2021/12/10 00:28:39;;;;;;;;;68.00;51.00;;;;;-146.39;100.00;62182.44;6312668;20;2881526;-40
2021/12/10 00:31:43;;;;;;;;;63.00;50.50;;;;;-146.39;100.00;62182.44;6282713;20;2862833;-42
2021/12/10 00:34:26;;;;;;;;;62.00;46.00;;;;;-146.39;100.00;62182.44;6283191;20;2872112;-40
2021/12/10 00:37:03;;;;;;;;;60.00;47.00;;;;;-146.39;100.00;62182.44;6282319;20;2870064;-40
2021/12/10 00:39:52;;;;;;;;;64.00;48.33;;;;;-146.39;100.00;62182.44;6282290;20;3619026;-41
2021/12/10 00:42:30;;;;;;;;;65.33;45.00;;;;;-146.39;100.00;62182.44;6314269;20;3632527;-40
2021/12/10 00:45:03;;;;;;;;;65.00;47.00;;;;;-146.39;100.00;62182.44;6313812;20;3622118;-42
2021/12/10 00:47:32;;;;;;;;;59.00;46.50;;;;;-146.39;100.00;62182.44;6312462;20;2858739;-42
2021/12/10 00:50:04;;;;;;;;;65.50;46.50;;;;;-146.39;100.00;62182.44;6280606;20;2858604;-42
2021/12/10 00:52:34;;;;;;;;;64.33;47.67;;;;;-146.39;100.00;62182.44;6282736;20;2878386;-40
2021/12/10 00:55:06;;;;;;;;;62.33;43.67;;;;;-146.39;100.00;62182.44;6311646;20;2870119;-41
2021/12/10 00:57:37;;;;;;;;;59.33;43.33;;;;;-146.39;100.00;62182.44;6314030;20;2871198;-40
2021/12/10 01:00:19;;;;;;;;;61.50;47.00;;;;;-146.39;100.00;62182.44;6312400;20;2866908;-42
2021/12/10 01:02:49;;;;;;;;;51.00;41.50;;;;;-146.39;100.00;62182.44;6281413;20;2866919;-41
2021/12/10 01:05:20;;;;;;;;;48.00;41.00;;;;;-146.39;100.00;62182.44;6282232;20;2753527;-41
2021/12/10 01:07:51;;;;;;;;;52.33;41.00;;;;;-146.39;100.00;62182.44;6311832;20;2872516;-41
2021/12/10 01:10:34;;;;;;;;;48.50;43.00;;;;;-146.39;100.00;62182.44;6314286;20;2869960;-40
2021/12/10 01:13:08;;;;;;;;;60.33;47.00;;;;;-146.39;100.00;62182.44;6281715;20;2874257;-40
2021/12/10 01:24:49;;;;;;;;;37.33;37.00;;;;;-146.39;100.00;62182.44;6282868;20;2859024;-39
2021/12/10 01:27:33;;;;;;;;;43.00;36.00;;;;;-146.39;100.00;62182.44;6309329;20;2857563;-40
2021/12/10 01:30:19;;;;;;;;;52.00;41.33;;;;;-146.39;100.00;62182.44;6279920;20;2872187;-40
2021/12/10 01:33:02;;;;;;;;;46.00;35.00;;;;;-146.39;100.00;62182.44;6312407;20;2850269;-39
2021/12/10 01:35:38;;;;;;;;;36.00;30.00;;;;;-146.39;100.00;62182.44;6281833;20;2856672;-41
2021/12/10 01:38:10;;;;;;;;;36.00;31.50;;;;;-146.39;100.00;62182.44;6279800;20;2504438;-41
2021/12/10 01:40:43;;;;;;;;;42.00;36.50;;;;;-146.39;100.00;62182.44;6280044;20;2500388;-42
2021/12/10 01:43:22;;;;;;;;;40.50;34.50;;;;;-146.39;100.00;62182.44;6280231;20;2856633;-41
2021/12/10 01:46:06;;;;;;;;;43.50;31.00;;;;;-146.39;100.00;62182.44;6279569;20;2500278;-39
2021/12/10 01:48:47;;;;;;;;;28.00;20.00;;;;;-146.39;100.00;62182.44;6278885;20;2827759;-40
2021/12/10 01:51:25;;;;;;;;;37.00;30.00;;;;;-146.39;100.00;62182.44;6284079;20;2856499;-40
2021/12/10 01:54:05;;;;;;;;;44.50;35.50;;;;;-146.39;100.00;62182.44;6277570;20;2867338;-41
2021/12/10 01:56:38;;;;;;;;;39.50;36.50;;;;;-146.39;100.00;62182.44;6281922;20;2855565;-42
2021/12/10 01:59:14;;;;;;;;;36.00;29.50;;;;;-146.39;100.00;62182.44;6273597;20;2502343;-39
2021/12/10 02:01:55;;;;;;;;;35.50;32.00;;;;;-146.39;100.00;62182.44;6280519;20;2859705;-39
2021/12/10 02:04:31;;;;;;;;;38.50;32.50;;;;;-146.39;100.00;62182.44;6279226;20;2857626;-39
2021/12/10 02:07:01;;;;;;;;;25.00;23.00;;;;;-146.39;100.00;62182.44;6280728;20;2837774;-40
2021/12/10 02:09:30;;;;;;;;;36.50;34.00;;;;;-146.39;100.00;62182.44;6275709;20;2500352;-39
2021/12/10 02:11:59;;;;;;;;;44.50;34.50;;;;;-146.39;100.00;62182.44;6279234;20;2862780;-40
2021/12/10 02:14:28;;;;;;;;;36.50;28.50;;;;;-146.39;100.00;62182.44;6278384;20;2860701;-40
2021/12/10 02:16:58;;;;;;;;;47.00;31.00;;;;;-146.39;100.00;62182.44;6276564;20;2500272;-39
2021/12/10 02:19:28;;;;;;;;;35.00;29.00;;;;;-146.39;100.00;62182.44;6278791;20;2847234;-40
2021/12/10 02:21:58;;;;;;;;;47.00;38.50;;;;;-146.39;100.00;62182.44;6275353;20;2500508;-40
2021/12/10 02:24:27;;;;;;;;;38.50;33.00;;;;;-146.39;100.00;62182.44;6279399;20;2854442;-40
2021/12/10 02:27:01;;;;;;;;;42.00;34.50;;;;;-146.39;100.00;62182.44;6273408;20;2496100;-40
2021/12/10 02:29:35;;;;;;;;;29.00;28.00;;;;;-146.39;100.00;62182.44;6279481;20;2848251;-40
2021/12/10 02:32:07;;;;;;;;;33.00;28.00;;;;;-146.39;100.00;62182.44;6278658;20;2500350;-40
2021/12/10 02:34:34;;;;;;;;;49.50;37.00;;;;;-146.39;100.00;62182.44;6274005;20;2500435;-40
2021/12/10 02:37:06;;;;;;;;;44.00;36.50;;;;;-146.39;100.00;62182.44;6281132;20;2848168;-41
2021/12/10 02:39:35;;;;;;;;;39.00;29.00;;;;;-146.39;100.00;62182.44;6278967;20;2869049;-41
2021/12/10 02:42:04;;;;;;;;;36.50;33.50;;;;;-146.39;100.00;62182.44;6276805;20;2500277;-40
2021/12/10 02:44:33;;;;;;;;;42.50;32.50;;;;;-146.39;100.00;62182.44;6275769;20;2500233;-42
2021/12/10 02:47:03;;;;;;;;;34.00;32.00;;;;;-146.39;100.00;62182.44;6280319;20;2843004;-40
2021/12/10 02:49:33;;;;;;;;;30.50;25.50;;;;;-146.39;100.00;62182.44;6279389;20;2500434;-40
2021/12/10 02:52:04;;;;;;;;;45.00;35.50;;;;;-146.39;100.00;62182.44;6279731;20;2861735;-40
2021/12/10 02:54:34;;;;;;;;;36.00;31.00;;;;;-146.39;100.00;62182.44;6273575;20;2500267;-40
2021/12/10 02:57:11;;;;;;;;;27.00;24.67;;;;;-146.39;100.00;62182.44;6284413;20;3566951;-40
2021/12/10 02:59:40;;;;;;;;;33.00;29.00;;;;;-146.39;100.00;62182.44;6283443;20;2836771;-40
2021/12/10 03:02:18;;;;;;;;;40.00;27.50;;;;;-146.39;100.00;62182.44;6286322;20;2866910;-40
2021/12/10 03:04:46;;;;;;;;;49.00;38.00;;;;;-146.39;100.00;62182.44;6281133;20;2500263;-41
2021/12/10 03:07:19;;;;;;;;;29.00;26.50;;;;;-146.39;100.00;62182.44;6285194;20;2834608;-40
2021/12/10 03:09:52;;;;;;;;;39.00;32.00;;;;;-146.39;100.00;62182.44;6278003;20;2854413;-40
2021/12/10 03:12:22;;;;;;;;;29.00;28.00;;;;;-146.39;100.00;62182.44;6281232;20;2825351;-40
2021/12/10 03:14:57;;;;;;;;;43.50;34.00;;;;;-146.39;100.00;62182.44;6278199;20;2877505;-41
2021/12/10 03:17:31;;;;;;;;;45.50;37.00;;;;;-146.39;100.00;62182.44;6281123;20;2852741;-40
2021/12/10 03:20:05;;;;;;;;;39.00;33.00;;;;;-146.39;100.00;62182.44;6278640;20;2863922;-40
2021/12/10 03:22:36;;;;;;;;;47.00;39.50;;;;;-146.39;100.00;62182.44;6282205;20;2853391;-40
2021/12/10 03:25:14;;;;;;;;;39.50;35.00;;;;;-146.39;100.00;62182.44;6282708;20;2854495;-42
2021/12/10 03:27:44;;;;;;;;;48.50;38.00;;;;;-146.39;100.00;62182.44;6278769;20;2500335;-39
2021/12/10 03:30:21;;;;;;;;;45.50;39.00;;;;;-146.39;100.00;62182.44;6282015;20;2854454;-40
2021/12/10 03:32:51;;;;;;;;;43.00;35.00;;;;;-146.39;100.00;62182.44;6282954;20;2501774;-40
2021/12/10 03:35:29;;;;;;;;;49.50;39.50;;;;;-146.39;100.00;62182.44;6281639;20;2865902;-40
2021/12/10 03:38:04;;;;;;;;;45.00;32.67;;;;;-146.39;100.00;62182.44;6284457;20;2876685;-41
2021/12/10 03:40:34;;;;;;;;;46.00;34.50;;;;;-146.39;100.00;62182.44;6315346;20;2877326;-40
2021/12/10 03:43:05;;;;;;;;;44.00;37.00;;;;;-146.39;100.00;62182.44;6285935;20;2869008;-40
2021/12/10 03:45:43;;;;;;;;;48.00;37.00;;;;;-146.39;100.00;62182.44;6279854;20;2500267;-40
2021/12/10 03:48:25;;;;;;;;;45.50;33.00;;;;;-146.39;100.00;62182.44;6280252;20;2871193;-40
2021/12/10 03:50:56;;;;;;;;;50.50;38.50;;;;;-146.39;100.00;62182.44;6283651;20;2864824;-40
2021/12/10 03:53:25;;;;;;;;;43.50;36.00;;;;;-146.39;100.00;62182.44;6283317;20;2859152;-40
2021/12/10 03:56:08;;;;;;;;;56.00;40.00;;;;;-146.39;100.00;62182.44;6282816;20;2863816;-39
2021/12/10 03:58:37;;;;;;;;;43.50;34.00;;;;;-146.39;100.00;62182.44;6283490;20;2869022;-40
2021/12/10 04:01:10;;;;;;;;;39.50;30.50;;;;;-146.39;100.00;62182.44;6281588;20;2500248;-40
2021/12/10 04:03:42;;;;;;;;;53.00;40.67;;;;;-146.39;100.00;62182.44;6284072;20;2875294;-40
2021/12/10 04:06:11;;;;;;;;;46.00;37.00;;;;;-146.39;100.00;62182.44;6311168;20;2500383;-41
2021/12/10 04:08:39;;;;;;;;;51.50;39.00;;;;;-146.39;100.00;62182.44;6283506;20;2851422;-40
2021/12/10 04:11:10;;;;;;;;;38.00;30.00;;;;;-146.39;100.00;62182.44;6280265;20;2500376;-40
2021/12/10 04:13:39;;;;;;;;;46.67;41.00;;;;;-146.39;100.00;62182.44;6283768;20;2873200;-40
2021/12/10 04:16:09;;;;;;;;;50.67;42.00;;;;;-146.39;100.00;62182.44;6311940;20;2873420;-39
2021/12/10 04:18:40;;;;;;;;;56.00;36.33;;;;;-146.39;100.00;62182.44;6310467;20;3628341;-39
2021/12/10 04:21:12;;;;;;;;;47.00;41.00;;;;;-146.39;100.00;62182.44;6312629;20;2500375;-40
2021/12/10 04:23:42;;;;;;;;;38.50;31.00;;;;;-146.39;100.00;62182.44;6283810;20;2858266;-40
2021/12/10 04:26:17;;;;;;;;;46.00;39.00;;;;;-146.39;100.00;62182.44;6282132;20;2859793;-39
2021/12/10 04:28:46;;;;;;;;;53.00;39.00;;;;;-146.39;100.00;62182.44;6278928;20;2500343;-40
2021/12/10 04:31:16;;;;;;;;;47.00;32.33;;;;;-146.39;100.00;62182.44;6281497;20;2884772;-41
2021/12/10 04:33:45;;;;;;;;;41.00;30.00;;;;;-146.39;100.00;62182.44;6312593;20;2864882;-40
2021/12/10 04:36:14;;;;;;;;;37.67;27.33;;;;;-146.39;100.00;62182.44;6282554;20;3589807;-40
2021/12/10 04:38:43;;;;;;;;;47.00;33.50;;;;;-146.39;100.00;62182.44;6281065;20;2874356;-40
2021/12/10 04:41:14;;;;;;;;;56.50;43.50;;;;;-146.39;100.00;62182.44;6279523;20;2500340;-42
2021/12/10 04:43:47;;;;;;;;;73.00;50.00;;;;;-146.39;100.00;62182.44;6282625;20;3621150;-40
2021/12/10 04:46:17;;;;;;;;;69.00;44.33;;;;;-146.39;100.00;62182.44;6314138;20;2873248;-40
2021/12/10 04:49:04;;;;;;;;;42.67;34.33;;;;;-146.39;100.00;62182.44;6312836;20;2866986;-40
2021/12/10 04:51:48;;;;;;;;;55.00;42.67;;;;;-146.39;100.00;62182.44;6313179;20;2877471;-40
2021/12/10 04:54:20;;;;;;;;;42.50;38.00;;;;;-146.39;100.00;62182.44;6314116;20;2858575;-40
2021/12/10 04:56:54;;;;;;;;;62.00;42.00;;;;;-146.39;100.00;62182.44;6281529;20;3646139;-40
2021/12/10 04:59:25;;;;;;;;;59.00;40.50;;;;;-146.39;100.00;62182.44;6308231;20;2871232;-41
2021/12/10 05:01:57;;;;;;;;;44.50;37.00;;;;;-146.39;100.00;62182.44;6280913;20;2854450;-40
2021/12/10 05:04:28;;;;;;;;;36.00;33.00;;;;;-146.39;100.00;62182.44;6281340;20;2853398;-39
2021/12/10 05:06:58;;;;;;;;;33.50;28.50;;;;;-146.39;100.00;62182.44;6280164;20;2500282;-40
2021/12/10 05:09:28;;;;;;;;;41.00;32.00;;;;;-146.39;100.00;62182.44;6282626;20;2860697;-41
2021/12/10 05:12:01;;;;;;;;;48.50;40.00;;;;;-146.39;100.00;62182.44;6282788;20;2873189;-40
2021/12/10 05:14:32;;;;;;;;;37.50;33.00;;;;;-146.39;100.00;62182.44;6281600;20;2854515;-40
2021/12/10 05:17:07;;;;;;;;;41.00;31.33;;;;;-146.39;100.00;62182.44;6282213;20;2869019;-40
2021/12/10 05:19:39;;;;;;;;;44.50;32.50;;;;;-146.39;100.00;62182.44;6311652;20;2862754;-40
2021/12/10 05:22:11;;;;;;;;;44.00;34.00;;;;;-146.39;100.00;62182.44;6281889;20;2867996;-42
2021/12/10 05:24:40;;;;;;;;;45.50;35.00;;;;;-146.39;100.00;62182.44;6281360;20;2867982;-39
2021/12/10 05:27:10;;;;;;;;;43.33;34.67;;;;;-146.39;100.00;62182.44;6281705;20;2860044;-40
2021/12/10 05:29:38;;;;;;;;;27.50;23.00;;;;;-146.39;100.00;62182.44;6310150;20;2500248;-39
2021/12/10 05:32:09;;;;;;;;;47.50;33.00;;;;;-146.39;100.00;62182.44;6278134;20;2884036;-40
2021/12/10 05:34:40;;;;;;;;;37.50;33.50;;;;;-146.39;100.00;62182.44;6283002;20;2855459;-42
2021/12/10 05:37:10;;;;;;;;;38.50;30.50;;;;;-146.39;100.00;62182.44;6281719;20;2862819;-40
2021/12/10 05:39:39;;;;;;;;;53.00;39.50;;;;;-146.39;100.00;62182.44;6279574;20;2868002;-40
2021/12/10 05:42:09;;;;;;;;;49.00;39.00;;;;;-146.39;100.00;62182.44;6281968;20;2874292;-40
2021/12/10 05:44:38;;;;;;;;;40.00;29.50;;;;;-146.39;100.00;62182.44;6280258;20;2871060;-40
2021/12/10 05:47:07;;;;;;;;;39.50;29.50;;;;;-146.39;100.00;62182.44;6275418;20;2500255;-40
2021/12/10 05:49:37;;;;;;;;;50.50;36.50;;;;;-146.39;100.00;62182.44;6280207;20;2873217;-41
2021/12/10 05:52:07;;;;;;;;;36.50;31.00;;;;;-146.39;100.00;62182.44;6279468;20;2500271;-40
2021/12/10 05:54:37;;;;;;;;;43.33;32.00;;;;;-146.39;100.00;62182.44;6282272;20;3623156;-40
2021/12/10 05:57:06;;;;;;;;;44.50;31.50;;;;;-146.39;100.00;62182.44;6311551;20;2873154;-40
2021/12/10 05:59:35;;;;;;;;;29.00;26.50;;;;;-146.39;100.00;62182.44;6276286;20;2853382;-41
2021/12/10 06:02:04;;;;;;;;;38.50;29.00;;;;;-146.39;100.00;62182.44;6281038;20;2857566;-40
2021/12/10 06:04:34;;;;;;;;;43.50;35.00;;;;;-146.39;100.00;62182.44;6277031;20;2500272;-40
2021/12/10 06:07:05;;;;;;;;;67.00;48.50;;;;;-146.39;100.00;62182.44;6276101;20;2516960;-40
2021/12/10 06:09:35;;;;;;;;;50.00;39.50;;;;;-146.39;100.00;62182.44;6278102;20;2502390;-41
2021/12/10 06:12:05;;;;;;;;;46.50;39.00;;;;;-146.39;100.00;62182.44;6280714;20;2872321;-40
2021/12/10 06:14:33;;;;;;;;;62.00;48.00;;;;;-146.39;100.00;62182.44;6276469;20;2503469;-40
2021/12/10 06:17:03;;;;;;;;;72.67;54.33;;;;;-146.39;100.00;62182.44;6279543;20;2868136;-41
2021/12/10 06:19:34;;;;;;;;;76.67;49.67;;;;;-146.39;100.00;62182.44;6310737;20;2885735;-40
2021/12/10 06:22:05;;;;;;;;;77.00;59.33;;;;;-146.39;100.00;62182.44;6310800;20;3633616;-40
2021/12/10 06:24:34;;;;;;;;;80.00;59.00;;;;;-146.39;100.00;62182.44;6311057;20;3647125;-40
2021/12/10 06:27:05;;;;;;;;;73.00;54.67;;;;;-146.39;100.00;62182.44;6311363;20;3617960;-40
2021/12/10 06:29:36;;;;;;;;;76.00;61.33;;;;;-146.39;100.00;62182.44;6311076;20;2876460;-40
2021/12/10 06:32:06;;;;;;;;;80.67;60.33;;;;;-146.39;100.00;62182.44;6317962;20;2881605;-40
2021/12/10 06:34:36;;;;;;;;;75.50;61.00;;;;;-146.39;100.00;62182.44;6316948;20;2861715;-40
2021/12/10 06:37:07;;;;;;;;;81.67;58.67;;;;;-146.39;100.00;62182.44;6286439;20;3646115;-40
2021/12/10 06:39:37;;;;;;;;;101.00;71.33;;;;;-146.39;100.00;62182.44;6315320;20;3680564;-40
2021/12/10 06:42:06;;;;;;;;;107.33;80.33;;;;;-146.39;100.00;62182.44;6284653;20;3677324;-40
2021/12/10 06:44:54;;;;;;;;;71.50;57.00;;;;;-146.39;100.00;62182.44;6280406;20;2500275;-40
2021/12/10 06:47:23;;;;;;;;;60.67;45.00;;;;;-146.39;100.00;62182.44;6285330;20;2871196;-40
2021/12/10 06:49:53;;;;;;;;;64.00;40.00;;;;;-146.39;100.00;62182.44;6315244;20;3631638;-41
2021/12/10 06:52:24;;;;;;;;;71.33;51.00;;;;;-146.39;100.00;62182.44;6316821;20;2890011;-40
2021/12/10 06:54:54;;;;;;;;;75.33;57.33;;;;;-146.39;100.00;62182.44;6317381;20;3636705;-40
2021/12/10 06:57:24;;;;;;;;;77.67;55.67;;;;;-146.39;100.00;62182.44;6316224;20;3637775;-41
2021/12/10 06:59:53;;;;;;;;;73.50;60.00;;;;;-146.39;100.00;62182.44;6315209;20;2859717;-41
2021/12/10 07:02:22;;;;;;;;;77.00;57.67;;;;;-146.39;100.00;62182.44;6286596;20;3641268;-39
2021/12/10 07:04:52;;;;;;;;;76.67;59.33;;;;;-146.39;100.00;62182.44;6316095;20;3638788;-39
2021/12/10 07:07:22;;;;;;;;;81.00;63.67;;;;;-146.39;100.00;62182.44;6317165;20;2872228;-39
2021/12/10 07:09:51;;;;;;;;;74.67;54.67;;;;;-146.39;100.00;62182.44;6314374;20;3634982;-40
2021/12/10 07:12:21;;;;;;;;;73.33;57.00;;;;;-146.39;100.00;62182.44;6317108;20;2883601;-40
2021/12/10 07:14:51;;;;;;;;;77.67;60.00;;;;;-146.39;100.00;62182.44;6316121;20;3632709;-39
2021/12/10 07:17:21;;;;;;;;;78.33;60.67;;;;;-146.39;100.00;62182.44;6312539;20;3635638;-39
2021/12/10 07:19:51;;;;;;;;;73.67;53.00;;;;;-146.39;100.00;62182.44;6315714;20;2893009;-39
2021/12/10 07:22:19;;;;;;;;;67.00;55.00;;;;;-146.39;100.00;62182.44;6315017;20;2848151;-39
2021/12/10 07:24:48;;;;;;;;;77.50;61.50;;;;;-146.39;100.00;62182.44;6283574;20;2877455;-39
2021/12/10 07:27:17;;;;;;;;;70.50;53.50;;;;;-146.39;100.00;62182.44;6283841;20;2874321;-39
2021/12/10 07:29:47;;;;;;;;;65.00;49.00;;;;;-146.39;100.00;62182.44;6281857;20;2879424;-40
2021/12/10 07:32:18;;;;;;;;;67.33;51.33;;;;;-146.39;100.00;62182.44;6311194;20;2879545;-41
2021/12/10 07:34:46;;;;;;;;;63.50;49.50;;;;;-146.39;100.00;62182.44;6310314;20;2495912;-40
2021/12/10 07:37:15;;;;;;;;;66.50;54.00;;;;;-146.39;100.00;62182.44;6282362;20;2863808;-39
2021/12/10 07:39:44;;;;;;;;;76.00;53.67;;;;;-146.39;100.00;62182.44;6284155;20;3639815;-40
2021/12/10 07:42:14;;;;;;;;;67.00;50.67;;;;;-146.39;100.00;62182.44;6312722;20;2864962;-42
2021/12/10 07:44:43;;;;;;;;;66.00;50.50;;;;;-146.39;100.00;62182.44;6316934;20;2875364;-40
2021/12/10 07:47:13;;;;;;;;;63.00;49.50;;;;;-146.39;100.00;62182.44;6281500;20;2492990;-40
2021/12/10 07:49:44;;;;;;;;;65.50;48.50;;;;;-146.39;100.00;62182.44;6278340;20;2500244;-39
2021/12/10 07:52:18;;;;;;;;;52.50;43.50;;;;;-146.39;100.00;62182.44;6284608;20;2870075;-40
2021/12/10 07:54:49;;;;;;;;;65.00;52.00;;;;;-146.39;100.00;62182.44;6282974;20;2856544;-38
2021/12/10 07:57:21;;;;;;;;;62.33;46.33;;;;;-146.39;100.00;62182.44;6284065;20;2874297;-39
2021/12/10 07:59:50;;;;;;;;;59.50;48.00;;;;;-146.39;100.00;62182.44;6312796;20;2864830;-40
2021/12/10 08:02:19;;;;;;;;;61.00;47.50;;;;;-146.39;100.00;62182.44;6279550;20;2494013;-39
2021/12/10 08:04:50;;;;;;;;;64.33;44.00;;;;;-146.39;100.00;62182.44;6284140;20;2883904;-40
2021/12/10 08:07:18;;;;;;;;;56.00;48.00;;;;;-146.39;100.00;62182.44;6308135;20;2503381;-40
2021/12/10 08:09:47;;;;;;;;;62.50;47.50;;;;;-146.39;100.00;62182.44;6283146;20;2868986;-42
2021/12/10 08:12:17;;;;;;;;;64.67;52.33;;;;;-146.39;100.00;62182.44;6283230;20;2866992;-41
2021/12/10 08:14:46;;;;;;;;;62.50;46.00;;;;;-146.39;100.00;62182.44;6311751;20;2490963;-40
2021/12/10 08:17:16;;;;;;;;;58.50;45.50;;;;;-146.39;100.00;62182.44;6280701;20;2862789;-40
2021/12/10 08:19:47;;;;;;;;;67.00;52.00;;;;;-146.39;100.00;62182.44;6282941;20;2867962;-41
2021/12/10 08:22:16;;;;;;;;;68.00;48.00;;;;;-146.39;100.00;62182.44;6282946;20;2881564;-42
2021/12/10 08:24:47;;;;;;;;;76.00;52.33;;;;;-146.39;100.00;62182.44;6284956;20;3646051;-41
2021/12/10 08:27:17;;;;;;;;;71.33;54.33;;;;;-146.39;100.00;62182.44;6312626;20;3614815;-41
2021/12/10 08:29:48;;;;;;;;;67.67;54.00;;;;;-146.39;100.00;62182.44;6313655;20;2869010;-40
2021/12/10 08:32:19;;;;;;;;;63.00;49.50;;;;;-146.39;100.00;62182.44;6314842;20;2861895;-40
2021/12/10 08:34:50;;;;;;;;;67.00;50.00;;;;;-146.39;100.00;62182.44;6281356;20;2873163;-40
2021/12/10 08:37:19;;;;;;;;;63.00;50.50;;;;;-146.39;100.00;62182.44;6278339;20;2862924;-40
2021/12/10 08:39:48;;;;;;;;;52.50;42.50;;;;;-146.39;100.00;62182.44;6279626;20;2853376;-41
2021/12/10 08:42:18;;;;;;;;;52.50;43.00;;;;;-146.39;100.00;62182.44;6283280;20;2852353;-40
2021/12/10 08:44:47;;;;;;;;;51.00;43.50;;;;;-146.39;100.00;62182.44;6282924;20;2857539;-41
2021/12/10 08:47:17;;;;;;;;;52.00;36.33;;;;;-146.39;100.00;62182.44;6284269;20;2889932;-48
2021/12/10 08:49:47;;;;;;;;;50.50;40.50;;;;;-146.39;100.00;62182.44;6312388;20;2863796;-48
2021/12/10 08:52:16;;;;;;;;;57.00;47.50;;;;;-146.39;100.00;62182.44;6283309;20;2855478;-48
2021/12/10 08:54:45;;;;;;;;;57.00;44.00;;;;;-146.39;100.00;62182.44;6281906;20;2874320;-48
2021/12/10 08:57:15;;;;;;;;;54.50;46.50;;;;;-146.39;100.00;62182.44;6281592;20;2848284;-48
2021/12/10 08:59:45;;;;;;;;;50.00;40.33;;;;;-146.39;100.00;62182.44;6278368;20;2874402;-48
2021/12/10 09:02:16;;;;;;;;;44.67;36.00;;;;;-146.39;100.00;62182.44;6314538;20;2862878;-48
2021/12/10 09:04:46;;;;;;;;;54.33;39.33;;;;;-146.39;100.00;62182.44;6314192;20;3642087;-47
2021/12/10 09:07:18;;;;;;;;;51.50;42.50;;;;;-146.39;100.00;62182.44;6312819;20;2854643;-48
2021/12/10 09:09:48;;;;;;;;;42.00;35.00;;;;;-146.39;100.00;62182.44;6279446;20;2876287;-48
2021/12/10 09:12:23;;;;;;;;;39.50;31.00;;;;;-146.39;100.00;62182.44;6279067;20;2496079;-48
2021/12/10 09:14:55;;;;;;;;;43.50;40.00;;;;;-146.39;100.00;62182.44;6282782;20;2866923;-48
2021/12/10 09:17:31;;;;;;;;;52.00;34.33;;;;;-146.39;100.00;62182.44;6280943;20;2875380;-48
2021/12/10 09:20:08;;;;;;;;;37.50;35.50;;;;;-146.39;100.00;62182.44;6312531;20;2860653;-49
2021/12/10 09:22:38;;;;;;;;;67.67;54.00;;;;;-146.39;100.00;62182.44;6283207;20;2872627;-43
2021/12/10 09:25:09;;;;;;;;;45.67;37.33;;;;;-146.39;100.00;62182.44;6312215;20;3618962;-41
2021/12/10 09:27:40;;;;;;;;;44.50;38.00;;;;;-146.39;100.00;62182.44;6312137;20;2858654;-42
2021/12/10 09:30:18;;;;;;;;;60.00;44.00;;;;;-146.39;100.00;62182.44;6311358;20;2868042;-40
2021/12/10 09:32:48;;;;;;;;;56.33;41.00;;;;;-146.39;100.00;62182.44;6314202;20;3631481;-42
2021/12/10 09:35:26;;;;;;;;;61.00;48.00;;;;;-146.39;100.00;62182.44;6310778;20;2859625;-41
2021/12/10 09:37:56;;;;;;;;;57.00;43.50;;;;;-146.39;100.00;62182.44;6281171;20;2867992;-41
2021/12/10 09:40:36;;;;;;;;;88.00;61.33;;;;;-146.39;100.00;62182.44;6282254;20;3659616;-40
2021/12/10 09:43:10;;;;;;;;;63.67;49.67;;;;;-146.39;100.00;62182.44;6312634;20;2867977;-40
2021/12/10 09:45:44;;;;;;;;;110.00;82.67;;;;;-146.39;100.00;62182.44;6314346;20;3685722;-40
2021/12/10 09:48:16;;;;;;;;;66.00;53.50;;;;;-146.39;100.00;62182.44;6275803;20;2487751;-40
2021/12/10 09:51:12;;;;;;;;;56.00;43.67;;;;;-146.39;100.00;62182.44;6280031;20;2864886;-40
2021/12/10 09:53:47;;;;;;;;;27.67;22.33;;;;;-146.39;100.00;62182.44;6312478;20;3569000;-40
2021/12/10 09:56:18;;;;;;;;;22.33;16.00;;;;;-146.39;100.00;62182.44;6281947;20;3573604;-41
2021/12/10 09:58:53;;;;;;;;;33.00;31.50;;;;;-146.39;100.00;62182.44;6309627;20;2854464;-42
2021/12/10 10:01:35;;;;;;;;;40.00;31.00;;;;;-146.39;100.00;62182.44;6282000;20;2857538;-42
2021/12/10 10:04:05;;;;;;;;;27.00;24.67;;;;;-146.39;100.00;62182.44;6278833;20;3583681;-41
2021/12/10 10:06:43;;;;;;;;;22.67;19.67;;;;;-146.39;100.00;62182.44;6281050;20;3571109;-40
2021/12/10 10:09:16;;;;;;;;;34.00;23.00;;;;;-146.39;100.00;62182.44;6275773;20;2500281;-41
2021/12/10 10:12:11;;;;;;;;;35.00;28.00;;;;;-146.39;100.00;62182.44;6284423;20;2500247;-41
2021/12/10 10:14:42;;;;;;;;;40.50;29.50;;;;;-146.39;100.00;62182.44;6280875;20;2863605;-40
2021/12/10 10:17:12;;;;;;;;;33.50;27.00;;;;;-146.39;100.00;62182.44;6275860;20;2500257;-41
2021/12/10 10:19:41;;;;;;;;;25.00;18.00;;;;;-146.39;100.00;62182.44;6282740;20;2828441;-40
2021/12/10 10:22:17;;;;;;;;;25.50;23.50;;;;;-146.39;100.00;62182.44;6278482;20;2500341;-41
2021/12/10 10:24:46;;;;;;;;;35.50;27.00;;;;;-146.39;100.00;62182.44;6279519;20;2500297;-41
2021/12/10 10:27:28;;;;;;;;;28.00;22.50;;;;;-146.39;100.00;62182.44;6277028;20;2496143;-40
2021/12/10 10:30:18;;;;;;;;;66.67;49.00;;;;;-146.39;100.00;62182.44;6278566;20;2880693;-41
2021/12/10 10:32:48;;;;;;;;;35.50;28.50;;;;;-146.39;100.00;62182.44;6310498;20;2847542;-41
2021/12/10 10:35:30;;;;;;;;;43.67;33.67;;;;;-146.39;100.00;62182.44;6280968;20;2861861;-42
2021/12/10 10:38:00;;;;;;;;;24.00;24.00;;;;;-146.39;100.00;62182.44;6309549;20;2841929;-41
2021/12/10 10:40:41;;;;;;;;;46.33;38.33;;;;;-146.39;100.00;62182.44;6278961;20;3623135;-41
2021/12/10 10:43:11;;;;;;;;;42.00;32.00;;;;;-146.39;100.00;62182.44;6310331;20;3616907;-42
2021/12/10 10:45:45;;;;;;;;;46.00;31.33;;;;;-146.39;100.00;62182.44;6311907;20;3618991;-43
2021/12/10 10:48:16;;;;;;;;;33.50;23.50;;;;;-146.39;100.00;62182.44;6311185;20;2857560;-41
2021/12/10 10:51:02;;;;;;;;;25.00;20.50;;;;;-146.39;100.00;62182.44;6278511;20;2500293;-41
2021/12/10 10:53:44;;;;;;;;;25.50;24.00;;;;;-146.39;100.00;62182.44;6279903;20;2852353;-41
2021/12/10 10:56:30;;;;;;;;;36.33;29.67;;;;;-146.39;100.00;62182.44;6278988;20;2855443;-40
2021/12/10 10:59:13;;;;;;;;;40.50;32.00;;;;;-146.39;100.00;62182.44;6308951;20;2851276;-40
2021/12/10 11:01:58;;;;;;;;;47.67;39.33;;;;;-146.39;100.00;62182.44;6281369;20;2871224;-40
2021/12/10 11:04:46;;;;;;;;;30.50;24.00;;;;;-146.39;100.00;62182.44;6306958;20;2500250;-40
2021/12/10 11:07:27;;;;;;;;;73.67;55.33;;;;;-146.39;100.00;62182.44;6277989;20;3644018;-41
2021/12/10 11:10:04;;;;;;;;;27.50;25.00;;;;;-146.39;100.00;62182.44;6309637;20;2847122;-41
2021/12/10 11:12:40;;;;;;;;;25.67;24.33;;;;;-146.39;100.00;62182.44;6278900;20;3560722;-41
2021/12/10 11:15:17;;;;;;;;;86.67;59.67;;;;;-146.39;100.00;62182.44;6281225;20;3659625;-40